createdAt,value
2023-07-04T00:01:19.394Z,6.10
2023-07-04T00:03:54.916Z,5.40
2023-07-04T00:06:25.096Z,6.10
2023-07-04T00:08:53.199Z,5.00
2023-07-04T00:11:21.542Z,5.50
2023-07-04T00:13:53.781Z,5.10
2023-07-04T00:16:22.084Z,5.50
2023-07-04T00:18:51.077Z,5.60
2023-07-04T00:21:20.143Z,6.00
2023-07-04T00:23:54.027Z,5.30
2023-07-04T00:26:24.773Z,4.80
2023-07-04T00:28:53.662Z,6.90
2023-07-04T00:31:25.360Z,5.60
2023-07-04T00:33:54.477Z,5.90
2023-07-04T00:36:22.610Z,5.50
2023-07-04T00:38:57.279Z,6.50
2023-07-04T00:41:29.975Z,5.80
2023-07-04T00:44:15.470Z,5.60
2023-07-04T00:47:06.083Z,5.60
2023-07-04T00:49:43.234Z,5.70
2023-07-04T00:52:15.433Z,5.10
2023-07-04T00:54:46.241Z,5.20
2023-07-04T00:57:15.920Z,5.30
2023-07-04T00:59:46.231Z,5.60
2023-07-04T01:02:16.936Z,5.10
2023-07-04T01:04:49.676Z,5.30
2023-07-04T01:07:24.077Z,6.70
2023-07-04T01:09:59.429Z,5.80
2023-07-04T01:12:31.292Z,5.40
2023-07-04T01:15:01.698Z,6.20
2023-07-04T01:17:31.350Z,4.80
2023-07-04T01:19:59.928Z,5.20
2023-07-04T01:22:50.138Z,5.60
2023-07-04T01:28:00.911Z,6.30
2023-07-04T01:30:30.621Z,6.00
2023-07-04T01:33:02.121Z,5.80
2023-07-04T01:35:30.379Z,5.40
2023-07-04T01:38:00.420Z,6.30
2023-07-04T01:40:31.471Z,6.00
2023-07-04T01:43:00.321Z,5.90
2023-07-04T01:45:28.216Z,5.30
2023-07-04T01:47:56.039Z,5.90
2023-07-04T01:50:25.006Z,6.10
2023-07-04T01:52:52.905Z,5.40
2023-07-04T01:55:21.169Z,5.80
2023-07-04T01:57:50.374Z,5.80
2023-07-04T02:00:20.043Z,5.80
2023-07-04T02:02:47.985Z,5.30
2023-07-04T02:05:20.787Z,5.50
2023-07-04T02:07:48.562Z,4.90
2023-07-04T02:10:16.473Z,6.10
2023-07-04T02:12:44.367Z,6.10
2023-07-04T02:15:13.352Z,5.40
2023-07-04T02:17:41.758Z,6.20
2023-07-04T02:20:10.387Z,6.30
2023-07-04T02:22:41.979Z,5.70
2023-07-04T02:25:10.685Z,5.30
2023-07-04T02:27:38.601Z,5.60
2023-07-04T02:30:07.245Z,6.80
2023-07-04T02:32:35.056Z,5.80
2023-07-04T02:35:02.861Z,5.80
2023-07-04T02:37:30.753Z,5.50
2023-07-04T02:39:58.716Z,5.40
2023-07-04T02:42:26.468Z,5.70
2023-07-04T02:44:54.376Z,6.20
2023-07-04T02:47:27.614Z,5.70
2023-07-04T02:49:55.802Z,5.90
2023-07-04T02:52:25.302Z,5.10
2023-07-04T02:54:53.505Z,5.90
2023-07-04T02:57:23.299Z,5.70
2023-07-04T02:59:51.124Z,6.40
2023-07-04T03:02:20.049Z,5.10
2023-07-04T03:04:49.132Z,6.60
2023-07-04T03:07:17.152Z,5.70
2023-07-04T03:09:45.060Z,5.80
2023-07-04T03:12:12.892Z,6.10
2023-07-04T03:14:40.711Z,5.00
2023-07-04T03:17:09.127Z,6.10
2023-07-04T03:19:37.151Z,6.00
2023-07-04T03:22:05.573Z,6.10
2023-07-04T03:24:36.116Z,6.60
2023-07-04T03:27:04.411Z,6.40
2023-07-04T03:29:32.192Z,7.90
2023-07-04T03:31:59.965Z,5.90
2023-07-04T03:34:27.884Z,6.40
2023-07-04T03:36:55.724Z,7.10
2023-07-04T03:39:23.607Z,6.00
2023-07-04T03:41:51.449Z,5.60
2023-07-04T03:44:19.230Z,6.40
2023-07-04T03:46:47.111Z,5.60
2023-07-04T03:49:14.970Z,6.20
2023-07-04T03:51:43.024Z,5.80
2023-07-04T03:54:11.292Z,5.70
2023-07-04T03:56:39.164Z,4.90
2023-07-04T03:59:07.025Z,5.40
2023-07-04T04:01:34.894Z,5.40
2023-07-04T04:04:02.937Z,5.40
2023-07-04T04:06:30.857Z,5.90
2023-07-04T04:08:58.761Z,5.50
2023-07-04T04:11:26.786Z,5.80
2023-07-04T04:13:54.804Z,4.90
2023-07-04T04:16:23.477Z,6.70
2023-07-04T04:18:52.496Z,5.00
2023-07-04T04:21:20.430Z,5.30
2023-07-04T04:23:48.287Z,5.30
2023-07-04T04:26:16.462Z,4.40
2023-07-04T04:28:44.233Z,5.60
2023-07-04T04:31:13.195Z,5.60
2023-07-04T04:33:41.216Z,5.60
2023-07-04T04:36:09.070Z,5.20
2023-07-04T04:38:39.497Z,4.80
2023-07-04T04:41:08.130Z,4.40
2023-07-04T04:43:36.070Z,4.60
2023-07-04T04:46:04.720Z,4.60
2023-07-04T04:48:36.726Z,4.70
2023-07-04T04:53:41.223Z,4.30
2023-07-04T04:56:09.898Z,4.50
2023-07-04T04:58:38.529Z,4.60
2023-07-04T05:01:17.800Z,4.60
2023-07-04T05:03:46.477Z,4.10
2023-07-04T05:06:14.471Z,5.50
2023-07-04T05:08:42.366Z,5.00
2023-07-04T05:11:10.371Z,5.00
2023-07-04T05:13:39.526Z,4.30
2023-07-04T05:16:11.271Z,3.90
2023-07-04T05:18:39.711Z,4.50
2023-07-04T05:21:10.554Z,5.10
2023-07-04T05:23:40.729Z,5.40
2023-07-04T05:26:29.502Z,4.60
2023-07-04T05:28:59.971Z,4.60
2023-07-04T05:31:29.492Z,4.40
2023-07-04T05:33:57.939Z,4.60
2023-07-04T05:36:29.828Z,4.20
2023-07-04T05:39:03.949Z,4.40
2023-07-04T05:41:33.709Z,4.70
2023-07-04T05:44:05.740Z,4.50
2023-07-04T05:46:34.544Z,5.00
2023-07-04T05:49:03.696Z,4.40
2023-07-04T05:51:32.480Z,3.90
2023-07-04T05:54:00.254Z,4.00
2023-07-04T05:56:31.746Z,4.50
2023-07-04T05:59:01.299Z,4.60
2023-07-04T06:01:29.194Z,3.90
2023-07-04T06:03:59.857Z,4.30
2023-07-04T06:06:29.389Z,4.40
2023-07-04T06:08:59.643Z,3.70
2023-07-04T06:11:31.582Z,4.40
2023-07-04T06:13:59.866Z,4.30
2023-07-04T06:16:27.733Z,4.20
2023-07-04T06:18:55.746Z,4.00
2023-07-04T06:21:38.401Z,3.40
2023-07-04T06:24:11.967Z,4.10
2023-07-04T06:26:39.956Z,4.20
2023-07-04T06:29:07.795Z,3.90
2023-07-04T06:31:35.667Z,4.20
2023-07-04T06:34:03.582Z,4.00
2023-07-04T06:36:31.963Z,4.10
2023-07-04T06:39:01.398Z,3.00
2023-07-04T06:41:29.321Z,3.20
2023-07-04T06:43:57.101Z,4.20
2023-07-04T06:46:25.109Z,3.70
2023-07-04T06:48:53.206Z,3.50
2023-07-04T06:51:21.840Z,3.70
2023-07-04T06:53:51.206Z,3.80
2023-07-04T06:56:21.848Z,3.40
2023-07-04T06:58:54.737Z,4.20
2023-07-04T07:01:28.975Z,3.50
2023-07-04T07:03:58.995Z,3.10
2023-07-04T07:06:28.021Z,3.10
2023-07-04T07:08:56.351Z,2.90
2023-07-04T07:11:26.268Z,3.80
2023-07-04T07:13:54.413Z,3.20
2023-07-04T07:16:24.904Z,3.60
2023-07-04T07:19:01.022Z,3.70
2023-07-04T07:21:28.950Z,3.90
2023-07-04T07:23:58.606Z,3.10
2023-07-04T07:26:29.457Z,3.00
2023-07-04T07:28:58.950Z,3.20
2023-07-04T07:31:33.858Z,3.00
2023-07-04T07:34:04.303Z,3.70
2023-07-04T07:36:42.066Z,3.20
2023-07-04T07:39:12.573Z,3.80
2023-07-04T07:41:44.683Z,3.50
2023-07-04T07:46:40.764Z,2.80
2023-07-04T07:49:08.920Z,3.10
2023-07-04T07:51:38.870Z,3.00
2023-07-04T07:54:07.991Z,2.80
2023-07-04T07:56:45.686Z,3.80
2023-07-04T07:59:13.978Z,3.00
2023-07-04T08:01:41.794Z,2.80
2023-07-04T08:04:10.747Z,3.00
2023-07-04T08:06:43.412Z,3.20
2023-07-04T08:09:14.522Z,3.10
2023-07-04T08:11:44.533Z,3.10
2023-07-04T08:14:14.830Z,3.80
2023-07-04T08:16:44.830Z,3.40
2023-07-04T08:19:13.842Z,3.10
2023-07-04T08:21:41.754Z,3.60
2023-07-04T08:24:13.990Z,3.10
2023-07-04T08:26:45.693Z,3.20
2023-07-04T08:29:15.393Z,3.90
2023-07-04T08:31:43.981Z,3.40
2023-07-04T08:34:12.282Z,3.90
2023-07-04T08:36:41.598Z,4.60
2023-07-04T08:39:10.857Z,4.00
2023-07-04T08:41:54.257Z,4.00
2023-07-04T08:44:23.926Z,3.70
2023-07-04T08:46:56.371Z,3.60
2023-07-04T08:49:42.618Z,4.30
2023-07-04T08:52:22.773Z,4.90
2023-07-04T08:54:51.971Z,4.70
2023-07-04T08:57:32.060Z,5.00
2023-07-04T09:00:08.154Z,4.60
2023-07-04T09:02:43.958Z,4.80
2023-07-04T09:05:25.362Z,4.70
2023-07-04T09:08:15.948Z,4.20
2023-07-04T09:10:48.321Z,4.70
2023-07-04T09:13:32.898Z,5.80
2023-07-04T09:16:06.349Z,5.70
2023-07-04T09:18:43.068Z,4.60
2023-07-04T09:21:14.073Z,5.70
2023-07-04T09:23:42.907Z,5.00
2023-07-04T09:26:12.414Z,6.00
2023-07-04T09:28:42.894Z,5.60
2023-07-04T09:31:19.603Z,5.50
2023-07-04T09:33:53.845Z,5.80
2023-07-04T09:36:29.441Z,5.80
2023-07-04T09:39:00.240Z,5.10
2023-07-04T09:41:31.268Z,5.60
2023-07-04T09:44:16.453Z,5.90
2023-07-04T09:46:52.910Z,5.40
2023-07-04T09:49:30.249Z,5.90
2023-07-04T09:52:03.853Z,6.30
2023-07-04T09:54:34.504Z,5.70
2023-07-04T09:57:24.156Z,5.30
2023-07-04T09:59:55.029Z,5.60
2023-07-04T10:02:26.836Z,6.10
2023-07-04T10:04:54.855Z,5.90
2023-07-04T10:07:25.044Z,5.90
2023-07-04T10:10:13.857Z,5.70
2023-07-04T10:12:46.261Z,5.40
2023-07-04T10:15:25.768Z,6.10
2023-07-04T10:17:53.898Z,6.30
2023-07-04T10:20:21.789Z,5.60
2023-07-04T10:22:54.426Z,5.20
2023-07-04T10:25:23.804Z,5.70
2023-07-04T10:27:57.251Z,6.30
2023-07-04T10:30:32.758Z,5.90
2023-07-04T10:33:05.660Z,5.70
2023-07-04T10:35:36.681Z,6.00
2023-07-04T10:38:13.983Z,6.40
2023-07-04T10:40:42.664Z,5.80
2023-07-04T10:43:14.525Z,7.10
2023-07-04T10:45:52.371Z,6.50
2023-07-04T10:48:32.404Z,7.40
2023-07-04T10:51:04.693Z,6.60
2023-07-04T10:53:32.438Z,6.30
2023-07-04T10:56:01.296Z,7.00
2023-07-04T10:58:34.581Z,6.20
2023-07-04T11:01:07.548Z,6.40
2023-07-04T11:03:35.547Z,7.30
2023-07-04T11:06:09.908Z,6.90
2023-07-04T11:08:40.317Z,7.50
2023-07-04T11:11:14.050Z,6.00
2023-07-04T11:13:54.578Z,7.10
2023-07-04T11:16:28.476Z,7.00
2023-07-04T11:19:07.838Z,6.70
2023-07-04T11:22:06.938Z,7.70
2023-07-04T11:24:54.981Z,7.40
2023-07-04T11:27:28.119Z,6.20
2023-07-04T11:30:04.149Z,6.70
2023-07-04T11:32:38.344Z,6.60
2023-07-04T11:35:12.211Z,8.60
2023-07-04T11:37:44.590Z,7.10
2023-07-04T11:40:19.811Z,7.60
2023-07-04T11:42:52.428Z,7.20
2023-07-04T11:45:26.348Z,7.70
2023-07-04T11:48:03.592Z,7.60
2023-07-04T11:50:35.895Z,6.80
2023-07-04T11:53:11.030Z,7.30
2023-07-04T11:55:39.013Z,6.70
2023-07-04T11:58:09.862Z,7.10
2023-07-04T12:00:38.629Z,7.50
2023-07-04T12:03:19.068Z,7.30
2023-07-04T12:06:33.582Z,7.40
2023-07-04T12:09:01.782Z,6.90
2023-07-04T12:11:44.853Z,8.00
2023-07-04T12:14:15.226Z,8.90
2023-07-04T12:16:45.760Z,7.00
2023-07-04T12:19:20.778Z,9.20
2023-07-04T12:24:37.762Z,8.10
2023-07-04T12:27:06.008Z,8.30
2023-07-04T12:32:20.680Z,10.20
2023-07-04T12:37:21.157Z,9.80
2023-07-04T12:39:50.279Z,9.40
2023-07-04T12:42:28.185Z,9.20
2023-07-04T12:44:56.503Z,9.70
2023-07-04T12:47:33.478Z,9.40
2023-07-04T12:50:04.195Z,8.90
2023-07-04T12:52:35.490Z,9.60
2023-07-04T12:55:05.050Z,8.10
2023-07-04T12:57:33.658Z,8.50
2023-07-04T13:00:20.493Z,11.00
2023-07-04T13:02:49.444Z,8.70
2023-07-04T13:05:18.452Z,9.00
2023-07-04T13:07:49.508Z,10.50
2023-07-04T13:10:26.759Z,9.00
2023-07-04T13:12:55.136Z,10.80
2023-07-04T13:15:31.237Z,10.60
2023-07-04T13:18:03.372Z,12.10
2023-07-04T13:20:34.126Z,10.90
2023-07-04T13:25:54.577Z,10.80
2023-07-04T13:34:28.868Z,11.20
2023-07-04T13:37:03.517Z,11.50
2023-07-04T13:42:03.990Z,12.10
2023-07-04T13:47:04.356Z,11.00
2023-07-04T13:49:32.131Z,10.70
2023-07-04T13:52:00.039Z,10.80
2023-07-04T13:54:28.447Z,10.20
2023-07-04T13:56:56.454Z,11.80
2023-07-04T14:07:15.088Z,10.30
2023-07-04T14:09:42.881Z,10.80
2023-07-04T14:12:11.136Z,11.60
2023-07-04T14:22:11.540Z,12.80
2023-07-04T14:24:39.656Z,10.90
2023-07-04T14:27:07.823Z,11.50
2023-07-04T14:29:35.864Z,11.20
2023-07-04T14:32:04.104Z,12.20
2023-07-04T14:34:32.330Z,13.30
2023-07-04T14:37:00.946Z,11.60
2023-07-04T14:39:29.190Z,13.80
2023-07-04T14:44:30.829Z,13.40
2023-07-04T14:46:58.797Z,15.10
2023-07-04T14:49:26.986Z,15.10
2023-07-04T14:51:54.778Z,14.20
2023-07-04T14:54:22.894Z,15.00
2023-07-04T14:56:51.699Z,13.30
2023-07-04T14:59:20.050Z,14.40
2023-07-04T15:01:47.991Z,15.80
2023-07-04T15:04:16.068Z,15.50
2023-07-04T15:06:43.886Z,14.40
2023-07-04T15:09:11.768Z,15.10
2023-07-04T15:11:39.718Z,15.50
2023-07-04T15:14:07.563Z,14.50
2023-07-04T15:16:35.516Z,14.50
2023-07-04T15:19:03.675Z,13.90
2023-07-04T15:21:31.504Z,14.60
2023-07-04T15:23:59.533Z,13.50
2023-07-04T15:26:28.626Z,14.30
2023-07-04T15:28:57.508Z,16.10
2023-07-04T15:31:26.279Z,14.10
2023-07-04T15:33:54.406Z,15.50
2023-07-04T15:36:22.559Z,13.40
2023-07-04T15:38:50.638Z,14.40
2023-07-04T15:41:20.404Z,15.70
2023-07-04T15:43:50.090Z,13.00
2023-07-04T15:46:18.266Z,12.80
2023-07-04T15:48:46.850Z,15.50
2023-07-04T15:51:20.604Z,15.00
2023-07-04T15:53:49.228Z,14.30
2023-07-04T15:56:20.064Z,14.10
2023-07-04T15:58:47.917Z,13.90
2023-07-04T16:01:16.009Z,12.30
2023-07-04T16:03:44.305Z,11.60
2023-07-04T16:06:12.603Z,13.70
2023-07-04T16:08:42.287Z,15.30
2023-07-04T16:11:14.490Z,14.00
2023-07-04T16:13:43.535Z,13.10
2023-07-04T16:16:12.391Z,12.50
2023-07-04T16:18:40.448Z,12.30
2023-07-04T16:21:08.688Z,11.60
2023-07-04T16:23:36.588Z,13.30
2023-07-04T16:26:04.826Z,15.70
2023-07-04T16:28:32.648Z,12.80
2023-07-04T16:31:05.997Z,14.80
2023-07-04T16:33:34.903Z,13.20
2023-07-04T16:36:05.466Z,12.80
2023-07-04T16:38:33.771Z,12.60
2023-07-04T16:41:02.651Z,13.80
2023-07-04T16:43:31.340Z,11.90
2023-07-04T16:45:59.381Z,14.20
2023-07-04T16:48:27.362Z,14.50
2023-07-04T16:50:58.961Z,14.70
2023-07-04T16:53:27.870Z,14.20
2023-07-04T16:55:58.028Z,13.30
2023-07-04T16:58:30.202Z,13.90
2023-07-04T17:01:00.712Z,12.60
2023-07-04T17:03:29.740Z,12.20
2023-07-04T17:06:03.023Z,12.70
2023-07-04T17:08:33.365Z,13.20
2023-07-04T17:11:06.129Z,14.00
2023-07-04T17:13:37.819Z,13.20
2023-07-04T17:16:09.810Z,12.70
2023-07-04T17:18:38.007Z,13.30
2023-07-04T17:21:06.591Z,12.50
2023-07-04T17:23:34.948Z,14.80
2023-07-04T17:26:03.082Z,14.00
2023-07-04T17:28:30.965Z,13.10
2023-07-04T17:31:00.452Z,11.70
2023-07-04T17:33:29.805Z,10.20
2023-07-04T17:36:10.206Z,10.80
2023-07-04T17:38:38.871Z,10.90
2023-07-04T17:41:17.402Z,11.40
2023-07-04T17:43:45.641Z,9.70
2023-07-04T17:46:13.960Z,10.10
2023-07-04T17:48:47.018Z,10.20
2023-07-04T17:51:28.359Z,11.60
2023-07-04T17:53:56.289Z,11.20
2023-07-04T17:56:27.966Z,11.20
2023-07-04T17:58:55.797Z,12.40
2023-07-04T18:01:26.401Z,10.90
2023-07-04T18:03:56.077Z,11.00
2023-07-04T18:06:24.059Z,10.70
2023-07-04T18:08:52.166Z,10.40
2023-07-04T18:11:25.466Z,11.50
2023-07-04T18:13:56.444Z,10.50
2023-07-04T18:16:26.341Z,10.60
2023-07-04T18:18:54.479Z,10.60
2023-07-04T18:21:24.420Z,10.40
2023-07-04T18:23:56.467Z,11.40
2023-07-04T18:28:55.310Z,9.50
2023-07-04T18:31:30.255Z,10.50
2023-07-04T18:34:03.580Z,10.80
2023-07-04T18:36:34.549Z,10.30
2023-07-04T18:39:03.696Z,10.00
2023-07-04T18:41:37.405Z,9.90
2023-07-04T18:44:07.059Z,10.20
2023-07-04T18:46:36.893Z,10.70
2023-07-04T18:49:05.591Z,12.40
2023-07-04T18:51:35.946Z,10.70
2023-07-04T18:54:04.408Z,11.30
2023-07-04T18:56:37.846Z,11.10
2023-07-04T18:59:05.768Z,9.70
2023-07-04T19:01:34.446Z,10.00
2023-07-04T19:04:02.854Z,9.90
2023-07-04T19:06:35.381Z,9.40
2023-07-04T19:09:04.995Z,10.40
2023-07-04T19:11:40.081Z,11.10
2023-07-04T19:14:19.114Z,10.10
2023-07-04T19:16:52.924Z,9.70
2023-07-04T19:19:33.070Z,9.90
2023-07-04T19:22:05.693Z,10.50
2023-07-04T19:24:35.102Z,9.60
2023-07-04T19:27:03.816Z,10.20
2023-07-04T19:29:32.401Z,10.30
2023-07-04T19:32:02.101Z,10.20
2023-07-04T19:34:30.404Z,10.00
2023-07-04T19:36:58.704Z,10.20
2023-07-04T19:39:28.422Z,10.40
2023-07-04T19:41:56.262Z,9.70
2023-07-04T19:44:25.312Z,11.10
2023-07-04T19:46:54.109Z,11.00
2023-07-04T19:49:22.213Z,9.80
2023-07-04T19:51:50.549Z,10.00
2023-07-04T19:54:19.046Z,9.30
2023-07-04T19:56:46.995Z,9.70
2023-07-04T19:59:14.742Z,10.10
2023-07-04T20:01:42.749Z,9.70
2023-07-04T20:04:10.727Z,9.70
2023-07-04T20:06:39.245Z,10.30
2023-07-04T20:09:07.372Z,9.70
2023-07-04T20:11:35.355Z,10.00
2023-07-04T20:14:03.936Z,9.60
2023-07-04T20:16:33.362Z,10.50
2023-07-04T20:19:01.725Z,10.10
2023-07-04T20:21:29.989Z,9.00
2023-07-04T20:23:57.973Z,10.30
2023-07-04T20:26:28.326Z,10.40
2023-07-04T20:28:59.363Z,10.40
2023-07-04T20:31:27.740Z,11.70
2023-07-04T20:33:56.104Z,10.90
2023-07-04T20:36:23.967Z,9.90
2023-07-04T20:38:52.894Z,10.70
2023-07-04T20:41:21.365Z,10.90
2023-07-04T20:43:49.184Z,11.50
2023-07-04T20:46:17.096Z,13.00
2023-07-04T20:48:45.289Z,12.50
2023-07-04T20:51:13.588Z,12.10
2023-07-04T20:53:41.837Z,13.80
2023-07-04T20:56:10.217Z,12.70
2023-07-04T20:58:38.376Z,12.00
2023-07-04T21:01:07.328Z,11.70
2023-07-04T21:03:38.189Z,12.30
2023-07-04T21:06:06.907Z,11.70
2023-07-04T21:08:35.763Z,11.10
2023-07-04T21:11:04.750Z,12.20
2023-07-04T21:13:34.803Z,12.40
2023-07-04T21:16:09.995Z,10.60
2023-07-04T21:18:39.184Z,11.00
2023-07-04T21:21:07.662Z,12.50
2023-07-04T21:23:36.623Z,13.20
2023-07-04T21:26:07.658Z,11.30
2023-07-04T21:28:36.632Z,11.40
2023-07-04T21:31:07.594Z,11.90
2023-07-04T21:33:36.317Z,12.30
2023-07-04T21:36:05.171Z,13.00
2023-07-04T21:38:35.428Z,11.60
2023-07-04T21:41:04.345Z,11.50
2023-07-04T21:43:32.397Z,12.30
2023-07-04T21:46:05.695Z,13.60
2023-07-04T21:48:33.743Z,12.00
2023-07-04T21:51:04.501Z,12.10
2023-07-04T21:53:33.089Z,11.80
2023-07-04T21:56:02.984Z,12.30
2023-07-04T21:58:31.252Z,12.30
2023-07-04T22:01:06.091Z,12.10
2023-07-04T22:03:36.306Z,12.20
2023-07-04T22:06:07.321Z,12.60
2023-07-04T22:08:36.655Z,12.90
2023-07-04T22:11:05.937Z,12.70
2023-07-04T22:13:35.233Z,11.20
2023-07-04T22:16:05.592Z,13.30
2023-07-04T22:18:34.153Z,11.80
2023-07-04T22:21:10.214Z,11.50
2023-07-04T22:23:39.515Z,13.40
2023-07-04T22:26:09.632Z,11.60
2023-07-04T22:28:38.290Z,12.40
2023-07-04T22:31:14.592Z,12.80
2023-07-04T22:34:00.146Z,12.30
2023-07-04T22:36:29.885Z,13.00
2023-07-04T22:38:59.082Z,12.00
2023-07-04T22:41:28.468Z,12.40
2023-07-04T22:43:56.396Z,12.60
2023-07-04T22:46:25.269Z,11.50
2023-07-04T22:48:53.601Z,12.80
2023-07-04T22:51:21.418Z,12.00
2023-07-04T22:53:50.844Z,11.90
2023-07-04T22:56:19.468Z,12.80
2023-07-04T22:58:47.942Z,13.20
2023-07-04T23:01:19.219Z,14.70
2023-07-04T23:03:49.105Z,13.00
2023-07-04T23:06:18.158Z,11.60
2023-07-04T23:08:46.246Z,12.50
2023-07-04T23:11:14.975Z,14.70
2023-07-04T23:13:42.941Z,13.20
2023-07-04T23:16:20.370Z,12.60
2023-07-04T23:18:49.667Z,13.90
2023-07-04T23:21:18.567Z,11.80
2023-07-04T23:23:48.082Z,13.40
2023-07-04T23:26:19.110Z,12.30
2023-07-04T23:28:47.145Z,13.20
2023-07-04T23:31:15.087Z,11.90
2023-07-04T23:33:45.504Z,12.90
2023-07-04T23:36:17.612Z,12.70
2023-07-04T23:38:48.561Z,13.00
2023-07-04T23:41:17.263Z,13.80
2023-07-04T23:43:45.877Z,12.90
2023-07-04T23:46:14.815Z,13.80
2023-07-04T23:48:44.016Z,12.40
2023-07-04T23:51:12.460Z,13.70
2023-07-04T23:53:40.337Z,14.30
2023-07-04T23:56:09.520Z,12.90
2023-07-04T23:58:37.424Z,12.70
